Time;durP1;ratioP1;P1;durP2;ratioP2;P2;SDS_P1;SDS_P2;PMS_P1;PMS_P2;Temp;Humidity;BMP_temperature;BMP_pressure;BME280_temperature;BME280_humidity;BME280_pressure;Samples;Min_cycle;Max_cycle;Signal;HPM_P1;HPM_P2
2022/05/18 00:02:18;;;;;;;17.80;6.15;;;;;;;16.02;100.00;98492.38;4980262;28;20440;-56
2022/05/18 00:04:44;;;;;;;15.18;5.60;;;;;;;15.98;100.00;98492.56;4981107;28;20030;-56
2022/05/18 00:07:09;;;;;;;16.35;5.47;;;;;;;16.23;100.00;98485.94;4979360;28;20503;-56
2022/05/18 00:09:34;;;;;;;12.75;5.25;;;;;;;16.55;100.00;98481.44;4979740;28;20037;-55
2022/05/18 00:12:00;;;;;;;17.83;5.70;;;;;;;16.27;100.00;98482.19;4980494;28;20451;-57
2022/05/18 00:14:25;;;;;;;14.50;5.00;;;;;;;15.87;100.00;98492.28;4983824;28;20467;-58
2022/05/18 00:16:51;;;;;;;19.13;5.72;;;;;;;15.67;100.00;98492.50;4979208;28;20088;-56
2022/05/18 00:19:16;;;;;;;17.95;5.60;;;;;;;15.71;100.00;98494.03;4979871;28;20030;-58
2022/05/18 00:21:41;;;;;;;18.45;5.65;;;;;;;16.13;100.00;98487.38;4979627;28;20722;-58
2022/05/18 00:24:07;;;;;;;18.08;6.07;;;;;;;16.37;100.00;98488.63;4978212;28;20030;-58
2022/05/18 00:26:33;;;;;;;17.60;5.82;;;;;;;16.19;100.00;98494.91;4978664;28;20153;-56
2022/05/18 00:28:58;;;;;;;15.95;5.18;;;;;;;16.07;100.00;98495.63;4979543;28;20030;-56
2022/05/18 00:31:24;;;;;;;17.50;5.75;;;;;;;15.95;100.00;98503.25;4977967;28;20138;-55
2022/05/18 00:33:49;;;;;;;17.77;5.70;;;;;;;16.09;100.00;98496.38;4978979;28;20523;-55
2022/05/18 00:36:15;;;;;;;17.23;6.30;;;;;;;16.22;100.00;98494.75;4977388;28;20622;-56
2022/05/18 00:38:40;;;;;;;14.13;4.97;;;;;;;16.12;100.00;98504.09;4979443;28;20370;-55
2022/05/18 00:41:05;;;;;;;16.25;5.82;;;;;;;16.28;100.00;98502.28;4980018;28;20046;-58
2022/05/18 00:43:31;;;;;;;16.67;5.10;;;;;;;16.41;100.00;98494.56;4979455;28;20041;-56
2022/05/18 00:46:01;;;;;;;16.58;5.57;;;;;;;16.25;100.00;98499.84;4979481;28;20419;-55
2022/05/18 00:48:26;;;;;;;18.55;5.78;;;;;;;16.14;100.00;98502.25;4976870;28;20022;-56
2022/05/18 00:50:54;;;;;;;12.75;5.30;;;;;;;16.42;100.00;98500.69;4978943;28;20042;-55
2022/05/18 00:53:25;;;;;;;14.75;5.28;;;;;;;16.44;100.00;98494.38;4981641;28;20149;-55
2022/05/18 00:55:57;;;;;;;11.68;5.07;;;;;;;16.29;100.00;98497.91;4979673;28;20053;-55
2022/05/18 00:58:31;;;;;;;12.88;5.20;;;;;;;15.86;100.00;98501.13;4979963;28;20023;-55
2022/05/18 01:00:57;;;;;;;10.13;4.40;;;;;;;16.40;100.00;98498.13;4979798;28;20544;-55
2022/05/18 01:03:28;;;;;;;13.18;5.35;;;;;;;16.52;100.00;98493.94;4980615;28;20072;-55
2022/05/18 01:06:02;;;;;;;12.20;4.60;;;;;;;16.45;100.00;98496.09;4979587;28;20093;-54
2022/05/18 01:08:52;;;;;;;15.45;5.32;;;;;;;16.62;100.00;98497.75;4979087;28;20116;-57
2022/05/18 01:11:18;;;;;;;15.75;5.53;;;;;;;16.13;100.00;98500.53;4979801;28;20051;-55
2022/05/18 01:13:45;;;;;;;15.98;5.35;;;;;;;16.52;100.00;98488.69;4980522;28;20157;-55
2022/05/18 01:16:10;;;;;;;19.52;5.80;;;;;;;16.42;100.00;98492.78;4978996;28;20038;-56
2022/05/18 01:18:37;;;;;;;12.65;5.22;;;;;;;16.50;100.00;98504.56;4978715;28;20538;-55
2022/05/18 01:21:02;;;;;;;13.85;5.53;;;;;;;16.16;100.00;98505.63;4979021;28;20045;-58
2022/05/18 01:23:34;;;;;;;14.68;5.75;;;;;;;16.12;100.00;98509.34;4980312;28;20030;-55
2022/05/18 01:26:35;;;;;;;14.65;5.97;;;;;;;16.09;100.00;98510.38;4979680;28;20531;-55
2022/05/18 01:29:02;;;;;;;13.32;5.43;;;;;;;16.01;100.00;98512.59;4980139;28;20081;-56
2022/05/18 01:31:49;;;;;;;11.57;4.93;;;;;;;16.10;100.00;98505.97;4978675;28;20667;-55
2022/05/18 01:34:17;;;;;;;14.70;5.05;;;;;;;16.41;100.00;98507.72;4977611;28;20034;-55
2022/05/18 01:36:43;;;;;;;15.95;5.85;;;;;;;16.41;100.00;98510.34;4976460;28;20121;-58
2022/05/18 01:39:17;;;;;;;16.00;6.07;;;;;;;15.93;100.00;98509.53;4977440;28;20048;-56
2022/05/18 01:42:08;;;;;;;15.98;6.05;;;;;;;16.40;100.00;98518.34;4976884;28;20034;-55
2022/05/18 01:44:38;;;;;;;14.93;5.85;;;;;;;16.50;100.00;98519.50;4977479;28;20026;-55
2022/05/18 01:47:03;;;;;;;15.80;5.95;;;;;;;16.19;100.00;98513.34;4978771;28;20463;-56
2022/05/18 01:49:29;;;;;;;17.23;5.82;;;;;;;16.60;100.00;98510.16;4979067;28;20046;-57
2022/05/18 01:51:56;;;;;;;22.65;6.82;;;;;;;16.13;100.00;98516.31;4978215;28;20054;-55
2022/05/18 01:54:21;;;;;;;16.50;6.50;;;;;;;15.97;100.00;98521.56;4979476;28;20504;-55
2022/05/18 01:56:47;;;;;;;14.45;6.20;;;;;;;15.92;100.00;98516.56;4977907;28;20058;-56
2022/05/18 01:59:12;;;;;;;14.85;5.72;;;;;;;16.30;100.00;98518.00;4978649;28;20141;-57
2022/05/18 02:01:38;;;;;;;13.18;6.00;;;;;;;16.50;100.00;98516.88;4977769;28;20380;-56
2022/05/18 02:04:05;;;;;;;17.33;6.35;;;;;;;16.47;100.00;98514.41;4979347;28;20072;-58
2022/05/18 02:06:33;;;;;;;17.95;7.00;;;;;;;16.24;100.00;98519.19;4977994;28;20034;-57
2022/05/18 02:08:59;;;;;;;14.82;6.00;;;;;;;16.60;100.00;98511.94;4978641;28;20092;-57
2022/05/18 02:11:24;;;;;;;18.98;7.10;;;;;;;16.07;100.00;98522.78;4978668;28;20045;-57
2022/05/18 02:13:51;;;;;;;17.73;6.82;;;;;;;16.23;100.00;98530.69;4981688;28;20026;-56
2022/05/18 02:16:20;;;;;;;22.20;7.55;;;;;;;16.08;100.00;98534.16;4977614;28;20512;-56
2022/05/18 02:18:45;;;;;;;13.40;5.22;;;;;;;16.44;100.00;98527.78;4978145;28;20683;-55
2022/05/18 02:21:11;;;;;;;19.63;6.72;;;;;;;16.42;100.00;98527.00;4977708;28;20030;-57
2022/05/18 02:23:39;;;;;;;13.80;6.35;;;;;;;16.53;100.00;98519.34;4976680;28;20448;-56
2022/05/18 02:26:09;;;;;;;14.10;6.72;;;;;;;16.45;100.00;98526.81;4976885;28;20212;-58
2022/05/18 02:28:35;;;;;;;15.15;6.20;;;;;;;16.49;100.00;98525.75;4978251;28;20026;-59
2022/05/18 02:31:01;;;;;;;15.48;6.18;;;;;;;16.54;100.00;98531.56;4971671;28;20034;-57
2022/05/18 02:33:26;;;;;;;15.10;6.57;;;;;;;16.51;100.00;98531.75;4978345;28;20030;-57
2022/05/18 02:35:51;;;;;;;14.52;6.47;;;;;;;16.15;100.00;98540.75;4978012;28;20042;-55
2022/05/18 02:38:17;;;;;;;20.08;6.80;;;;;;;15.97;100.00;98532.09;4977094;28;20311;-56
2022/05/18 02:40:42;;;;;;;13.00;5.65;;;;;;;16.49;100.00;98525.75;4977937;28;20077;-55
2022/05/18 02:43:08;;;;;;;15.60;6.55;;;;;;;16.73;100.00;98521.69;4978221;28;20060;-56
2022/05/18 02:45:33;;;;;;;16.98;6.28;;;;;;;16.73;100.00;98520.84;4977099;28;20085;-56
2022/05/18 02:47:59;;;;;;;15.77;7.00;;;;;;;16.74;100.00;98519.88;4978845;28;20050;-54
2022/05/18 02:50:26;;;;;;;17.05;6.97;;;;;;;16.80;100.00;98531.84;4977438;28;20376;-54
2022/05/18 02:52:51;;;;;;;14.73;6.40;;;;;;;16.89;100.00;98526.97;4977322;28;20041;-54
2022/05/18 02:58:01;;;;;;;20.98;7.50;;;;;;;16.54;100.00;98532.44;4981831;28;20069;-55
2022/05/18 03:00:26;;;;;;;14.40;7.10;;;;;;;16.71;100.00;98531.47;4985037;28;20062;-56
2022/05/18 03:02:51;;;;;;;16.75;7.57;;;;;;;16.60;100.00;98536.50;4980364;28;20034;-54
2022/05/18 03:05:17;;;;;;;18.17;7.07;;;;;;;16.56;100.00;98545.53;4980656;28;20841;-56
2022/05/18 03:07:43;;;;;;;14.93;6.82;;;;;;;16.47;100.00;98543.38;4980932;28;20113;-54
2022/05/18 03:10:09;;;;;;;19.15;7.95;;;;;;;16.65;100.00;98552.91;4977208;28;20044;-55
2022/05/18 03:12:35;;;;;;;19.52;7.18;;;;;;;16.76;100.00;98558.41;4978886;28;20049;-55
2022/05/18 03:15:01;;;;;;;18.33;7.38;;;;;;;16.98;100.00;98564.22;4977346;28;20109;-56
2022/05/18 03:17:26;;;;;;;22.90;8.00;;;;;;;16.72;100.00;98564.75;4978149;28;20080;-54
2022/05/18 03:19:52;;;;;;;14.07;7.25;;;;;;;16.76;100.00;98562.78;4979706;28;20691;-53
2022/05/18 03:25:02;;;;;;;14.63;6.93;;;;;;;16.79;100.00;98574.97;4982174;28;20698;-54
2022/05/18 03:27:28;;;;;;;16.83;7.80;;;;;;;16.94;100.00;98571.47;4980397;28;20397;-57
2022/05/18 03:29:54;;;;;;;17.10;7.57;;;;;;;16.71;100.00;98578.88;4981742;28;20904;-54
2022/05/18 03:32:22;;;;;;;19.55;8.20;;;;;;;16.70;100.00;98574.53;4980909;28;20574;-55
2022/05/18 03:34:49;;;;;;;20.08;8.23;;;;;;;16.98;100.00;98572.97;4982832;28;20595;-56
2022/05/18 03:37:16;;;;;;;16.75;7.90;;;;;;;16.60;100.00;98573.38;4980226;28;20116;-55
2022/05/18 03:39:41;;;;;;;17.10;7.57;;;;;;;16.88;100.00;98571.84;4981252;28;20026;-54
2022/05/18 03:42:07;;;;;;;17.05;7.72;;;;;;;16.94;100.00;98574.94;4980571;28;20765;-54
2022/05/18 03:44:32;;;;;;;17.48;8.02;;;;;;;16.99;100.00;98574.69;4971546;28;20452;-56
2022/05/18 03:46:58;;;;;;;17.85;8.07;;;;;;;16.87;100.00;98578.91;4981826;28;20084;-55
2022/05/18 03:49:23;;;;;;;18.05;7.93;;;;;;;16.97;100.00;98581.84;4982828;28;20165;-54
2022/05/18 03:51:49;;;;;;;18.50;8.18;;;;;;;17.07;100.00;98580.34;4981000;28;20049;-55
2022/05/18 03:54:16;;;;;;;14.52;7.38;;;;;;;16.98;100.00;98596.69;4983428;28;20034;-54
2022/05/18 03:56:47;;;;;;;20.65;8.30;;;;;;;16.81;100.00;98592.38;4981686;28;20038;-56
2022/05/18 03:59:13;;;;;;;17.63;8.07;;;;;;;16.89;100.00;98589.31;4980506;28;20111;-56
2022/05/18 04:01:41;;;;;;;19.25;8.13;;;;;;;16.72;100.00;98599.00;4979363;28;20088;-55
2022/05/18 04:04:07;;;;;;;15.18;7.50;;;;;;;16.53;100.00;98598.34;4981016;28;20026;-56
2022/05/18 04:06:32;;;;;;;19.52;8.20;;;;;;;16.55;100.00;98602.59;4978924;28;20437;-55
2022/05/18 04:08:57;;;;;;;19.15;8.35;;;;;;;17.09;100.00;98604.84;4980272;28;20295;-57
2022/05/18 04:11:23;;;;;;;18.55;8.57;;;;;;;17.00;100.00;98607.16;4980529;28;20038;-55
2022/05/18 04:13:48;;;;;;;14.73;7.20;;;;;;;17.10;100.00;98608.34;4980080;28;20455;-57
2022/05/18 04:16:14;;;;;;;19.88;9.07;;;;;;;17.00;100.00;98607.16;4979574;28;20144;-55
2022/05/18 04:18:39;;;;;;;18.95;8.38;;;;;;;17.11;100.00;98607.38;4980511;28;20118;-55
2022/05/18 04:21:06;;;;;;;18.63;8.23;;;;;;;17.10;100.00;98603.91;4980414;28;20046;-56
2022/05/18 04:23:32;;;;;;;18.00;8.32;;;;;;;17.03;100.00;98602.56;4980885;28;20065;-55
2022/05/18 04:25:57;;;;;;;17.95;8.23;;;;;;;17.11;100.00;98599.47;4980662;28;20568;-55
2022/05/18 04:28:23;;;;;;;17.38;8.82;;;;;;;17.13;100.00;98589.72;4980130;28;20038;-56
2022/05/18 04:30:49;;;;;;;22.98;8.75;;;;;;;16.98;100.00;98587.94;4980590;28;20424;-55
2022/05/18 04:33:18;;;;;;;16.95;8.13;;;;;;;17.42;100.00;98592.41;4980019;28;20030;-54
2022/05/18 04:35:44;;;;;;;20.85;8.77;;;;;;;17.29;100.00;98602.81;4978065;28;20053;-57
2022/05/18 04:38:10;;;;;;;16.35;8.13;;;;;;;17.09;100.00;98607.50;4979414;28;20108;-58
2022/05/18 04:40:38;;;;;;;20.20;8.30;;;;;;;17.57;100.00;98614.38;4979832;28;20528;-55
2022/05/18 04:43:04;;;;;;;16.35;7.90;;;;;;;17.59;100.00;98604.56;4980012;28;20064;-55
2022/05/18 04:45:29;;;;;;;16.88;8.05;;;;;;;17.50;100.00;98612.09;4976408;28;20053;-57
2022/05/18 04:47:55;;;;;;;15.45;8.10;;;;;;;17.72;100.00;98610.81;4979299;28;20421;-55
2022/05/18 04:50:21;;;;;;;19.88;8.90;;;;;;;17.34;100.00;98612.16;4978751;28;20049;-56
2022/05/18 04:52:47;;;;;;;17.88;8.80;;;;;;;17.72;100.00;98618.75;4979345;28;20038;-56
2022/05/18 04:55:13;;;;;;;16.60;8.07;;;;;;;18.14;100.00;98627.66;4978838;28;20041;-56
2022/05/18 04:57:39;;;;;;;15.32;7.90;;;;;;;17.84;100.00;98631.16;4981777;28;20057;-55
2022/05/18 05:00:07;;;;;;;17.05;7.70;;;;;;;18.11;100.00;98628.66;4978945;28;20110;-57
2022/05/18 05:02:37;;;;;;;21.00;8.50;;;;;;;18.25;100.00;98635.75;4979588;28;20266;-57
2022/05/18 05:05:06;;;;;;;18.48;8.40;;;;;;;18.24;100.00;98649.88;4968967;28;20038;-56
2022/05/18 05:07:32;;;;;;;19.67;8.88;;;;;;;18.17;100.00;98643.28;4978402;28;20044;-56
2022/05/18 05:09:57;;;;;;;16.95;8.13;;;;;;;17.63;100.00;98648.31;4978833;28;20026;-58
2022/05/18 05:12:25;;;;;;;20.63;9.10;;;;;;;17.98;100.00;98646.22;4978575;28;20081;-58
2022/05/18 05:14:50;;;;;;;15.43;7.80;;;;;;;18.09;100.00;98648.19;4979267;28;20030;-55
2022/05/18 05:17:16;;;;;;;16.73;8.43;;;;;;;18.78;100.00;98649.13;4977795;28;20465;-55
2022/05/18 05:19:41;;;;;;;16.05;8.60;;;;;;;18.00;100.00;98654.88;4979377;28;20030;-56
2022/05/18 05:22:07;;;;;;;17.63;8.40;;;;;;;18.45;100.00;98652.13;4979651;28;20524;-58
2022/05/18 05:24:33;;;;;;;17.58;7.88;;;;;;;18.65;100.00;98656.97;4979221;28;20038;-55
2022/05/18 05:26:58;;;;;;;18.05;8.00;;;;;;;19.42;100.00;98657.31;4978776;28;20041;-57
2022/05/18 05:29:24;;;;;;;18.88;8.45;;;;;;;19.53;100.00;98661.88;4978850;28;20560;-56
2022/05/18 05:31:49;;;;;;;16.50;8.23;;;;;;;19.90;100.00;98669.16;4978704;28;20502;-56
2022/05/18 05:34:14;;;;;;;17.52;8.63;;;;;;;19.56;100.00;98671.44;4977131;28;20397;-56
2022/05/18 05:36:40;;;;;;;15.05;7.75;;;;;;;19.45;100.00;98672.97;4978283;28;20129;-55
2022/05/18 05:39:05;;;;;;;15.35;8.25;;;;;;;18.92;100.00;98682.63;4978941;28;20014;-57
2022/05/18 05:41:31;;;;;;;14.50;7.65;;;;;;;19.61;100.00;98675.47;4979297;28;20081;-58
2022/05/18 05:43:57;;;;;;;27.55;8.10;;;;;;;19.81;100.00;98671.50;4970829;28;20759;-57
2022/05/18 05:46:23;;;;;;;17.45;7.88;;;;;;;20.42;100.00;98676.13;4979130;28;20045;-56
2022/05/18 05:48:49;;;;;;;17.17;7.57;;;;;;;19.04;100.00;98676.56;4978545;28;20030;-56
2022/05/18 05:51:15;;;;;;;17.35;8.18;;;;;;;19.31;100.00;98669.56;4977863;28;20065;-58
2022/05/18 05:53:43;;;;;;;16.80;8.50;;;;;;;19.99;100.00;98679.09;4977771;28;20139;-56
2022/05/18 05:56:11;;;;;;;14.50;8.05;;;;;;;20.66;100.00;98672.69;4978593;28;20049;-57
2022/05/18 05:58:37;;;;;;;14.68;7.38;;;;;;;20.94;100.00;98675.06;4978079;28;20033;-57
2022/05/18 06:01:05;;;;;;;17.92;7.47;;;;;;;21.45;100.00;98670.47;4977634;28;20046;-58
2022/05/18 06:03:31;;;;;;;17.60;7.97;;;;;;;23.25;100.00;98678.53;4978876;28;20022;-59
2022/05/18 06:05:57;;;;;;;13.10;6.82;;;;;;;23.35;100.00;98669.78;4977310;28;20523;-57
2022/05/18 06:08:23;;;;;;;15.05;7.30;;;;;;;21.85;100.00;98662.97;4977000;28;20057;-56
2022/05/18 06:10:49;;;;;;;12.27;7.20;;;;;;;22.17;100.00;98666.78;4977913;28;20035;-54
2022/05/18 06:13:15;;;;;;;17.17;8.20;;;;;;;22.93;100.00;98673.13;4979236;28;20646;-56
2022/05/18 06:15:41;;;;;;;12.82;7.40;;;;;;;21.99;100.00;98674.38;4979579;28;20065;-54
2022/05/18 06:18:06;;;;;;;11.93;6.93;;;;;;;22.69;100.00;98678.63;4971716;28;20022;-54
2022/05/18 06:20:32;;;;;;;14.52;7.63;;;;;;;22.11;100.00;98682.25;4975617;28;20038;-55
2022/05/18 06:22:59;;;;;;;15.85;7.60;;;;;;;22.65;100.00;98685.16;4979375;28;20030;-55
2022/05/18 06:25:24;;;;;;;12.13;7.18;;;;;;;21.78;100.00;98687.47;4977058;28;20026;-56
2022/05/18 06:27:50;;;;;;;14.20;7.68;;;;;;;22.01;100.00;98683.91;4977117;28;20747;-56
2022/05/18 06:30:16;;;;;;;13.05;7.38;;;;;;;21.43;100.00;98697.13;4976759;28;20492;-56
2022/05/18 06:32:42;;;;;;;17.65;7.20;;;;;;;22.02;100.00;98692.72;4978168;28;20026;-55
2022/05/18 06:35:08;;;;;;;27.20;15.13;;;;;;;21.87;100.00;98697.38;4978718;28;20022;-55
2022/05/18 06:37:33;;;;;;;21.33;9.23;;;;;;;21.72;100.00;98708.22;4978039;28;20552;-56
2022/05/18 06:40:03;;;;;;;16.25;7.63;;;;;;;21.31;100.00;98706.81;4976011;28;20603;-56
2022/05/18 06:42:29;;;;;;;13.82;7.95;;;;;;;21.38;100.00;98709.88;4973783;28;20219;-56
2022/05/18 06:44:54;;;;;;;13.25;7.65;;;;;;;21.58;100.00;98711.09;4973595;28;20038;-56
2022/05/18 06:47:20;;;;;;;15.02;7.38;;;;;;;21.85;100.00;98702.81;4971850;28;20031;-56
2022/05/18 06:49:47;;;;;;;14.07;7.97;;;;;;;21.46;100.00;98714.66;4976547;28;20038;-56
2022/05/18 06:52:12;;;;;;;13.85;7.63;;;;;;;21.86;100.00;98714.31;4974707;28;20578;-56
2022/05/18 06:54:38;;;;;;;19.08;7.35;;;;;;;22.47;100.00;98711.38;4975952;28;20567;-56
2022/05/18 06:57:04;;;;;;;16.75;8.05;;;;;;;22.54;100.00;98709.94;4975129;28;20042;-57
2022/05/18 06:59:29;;;;;;;14.25;8.95;;;;;;;22.57;100.00;98716.81;4977617;28;20084;-56
2022/05/18 07:01:54;;;;;;;14.13;6.95;;;;;;;22.74;100.00;98713.69;4977550;28;20505;-58
2022/05/18 07:04:20;;;;;;;15.07;7.63;;;;;;;22.61;100.00;98713.81;4978664;28;20030;-57
2022/05/18 07:06:48;;;;;;;14.52;6.95;;;;;;;23.37;100.00;98705.94;4977402;28;20035;-55
2022/05/18 07:09:16;;;;;;;14.48;7.40;;;;;;;22.72;100.00;98715.63;4980741;28;20757;-58
2022/05/18 07:11:49;;;;;;;11.65;5.70;;;;;;;24.08;100.00;98705.38;4978069;28;20132;-56
2022/05/18 07:14:15;;;;;;;10.77;6.10;;;;;;;24.26;100.00;98708.25;4978002;28;20673;-56
2022/05/18 07:16:42;;;;;;;9.55;5.60;;;;;;;23.25;100.00;98713.13;4974661;28;20686;-56
2022/05/18 07:19:08;;;;;;;11.27;6.30;;;;;;;22.63;100.00;98706.56;4976173;28;20038;-58
2022/05/18 07:21:33;;;;;;;9.77;5.75;;;;;;;24.57;98.49;98710.94;4977600;28;20030;-57
2022/05/18 07:23:58;;;;;;;12.57;6.30;;;;;;;25.62;88.42;98706.94;4977383;28;20023;-57
2022/05/18 07:26:26;;;;;;;11.10;6.35;;;;;;;24.55;88.92;98712.91;4976791;28;20417;-56
2022/05/18 07:28:51;;;;;;;12.18;5.63;;;;;;;25.42;84.79;98706.97;4975828;28;20062;-56
2022/05/18 07:31:19;;;;;;;9.45;5.53;;;;;;;25.24;80.14;98698.78;4976368;28;20062;-56
2022/05/18 07:33:46;;;;;;;10.35;5.45;;;;;;;24.68;84.46;98702.84;4977396;28;20041;-56
2022/05/18 07:36:11;;;;;;;11.60;6.13;;;;;;;24.50;91.95;98699.09;4974461;28;20034;-57
2022/05/18 07:38:38;;;;;;;16.25;5.63;;;;;;;24.67;90.88;98695.84;4973745;28;20038;-56
2022/05/18 07:41:07;;;;;;;13.20;5.90;;;;;;;24.78;86.14;98694.88;4976610;28;20053;-59
2022/05/18 07:43:33;;;;;;;10.07;5.40;;;;;;;24.98;85.68;98693.13;4977676;28;20334;-56
2022/05/18 07:45:58;;;;;;;10.02;5.55;;;;;;;26.59;78.00;98697.88;4980859;28;20088;-57
2022/05/18 07:48:24;;;;;;;10.02;5.22;;;;;;;27.45;70.02;98692.16;4981560;28;20030;-55
2022/05/18 07:50:50;;;;;;;10.10;5.00;;;;;;;26.64;73.26;98693.78;4980178;28;20085;-57
2022/05/18 07:53:16;;;;;;;12.52;5.80;;;;;;;26.93;68.50;98693.63;4980444;28;20109;-56
2022/05/18 07:55:41;;;;;;;11.27;5.50;;;;;;;28.98;64.50;98686.22;4980500;28;20042;-56
2022/05/18 07:58:09;;;;;;;8.38;4.93;;;;;;;30.21;58.73;98693.53;4983239;28;20447;-56
2022/05/18 08:00:35;;;;;;;11.90;4.78;;;;;;;32.64;49.81;98691.38;4981125;28;20096;-58
2022/05/18 08:03:02;;;;;;;9.43;5.38;;;;;;;29.94;54.34;98692.06;4981915;28;20101;-57
2022/05/18 08:05:29;;;;;;;7.18;4.82;;;;;;;30.91;50.52;98700.06;4981111;28;20556;-57
2022/05/18 08:07:54;;;;;;;6.95;4.50;;;;;;;34.56;43.33;98701.53;4981062;28;20022;-58
2022/05/18 08:15:49;;;;;;;14.38;4.80;;;;;;;32.31;44.81;98702.53;4981141;28;20057;-57
2022/05/18 08:18:18;;;;;;;8.68;4.63;;;;;;;29.63;48.71;98695.44;4981529;28;20062;-57
2022/05/18 08:20:45;;;;;;;8.13;4.50;;;;;;;29.36;51.19;98700.09;4980553;28;20038;-56
2022/05/18 08:23:10;;;;;;;10.20;4.80;;;;;;;28.60;53.92;98698.34;4981589;28;20030;-57
2022/05/18 08:25:36;;;;;;;8.43;4.68;;;;;;;29.00;52.60;98703.03;4980648;28;20058;-56
2022/05/18 08:28:03;;;;;;;7.50;4.80;;;;;;;30.04;51.07;98698.13;4981121;28;20100;-57
2022/05/18 08:30:30;;;;;;;7.88;4.30;;;;;;;32.25;46.19;98697.88;4981103;28;20046;-57
2022/05/18 08:33:01;;;;;;;7.28;4.65;;;;;;;30.80;46.98;98703.94;4980620;28;20310;-57
2022/05/18 08:35:28;;;;;;;7.65;4.35;;;;;;;33.99;41.82;98693.44;4980718;28;20038;-57
2022/05/18 08:37:54;;;;;;;7.20;4.65;;;;;;;32.74;43.39;98702.75;4980421;28;20526;-56
2022/05/18 08:40:28;;;;;;;6.28;3.72;;;;;;;32.99;42.18;98699.72;4980337;28;20626;-57
2022/05/18 08:43:04;;;;;;;10.82;4.57;;;;;;;32.18;44.66;98707.75;4981030;28;20447;-57
2022/05/18 08:45:33;;;;;;;7.57;4.72;;;;;;;31.29;46.09;98709.09;4980191;28;20041;-57
2022/05/18 08:48:21;;;;;;;5.70;4.05;;;;;;;31.36;44.22;98702.97;4980291;28;20022;-57
2022/05/18 08:50:47;;;;;;;6.82;4.10;;;;;;;33.55;41.15;98690.97;4980475;28;20041;-57
2022/05/18 08:53:25;;;;;;;7.07;4.20;;;;;;;34.50;39.09;98692.34;4980197;28;20078;-57
2022/05/18 08:55:58;;;;;;;7.80;3.90;;;;;;;32.24;41.47;98688.09;4980194;28;20042;-57
2022/05/18 08:58:29;;;;;;;8.25;4.10;;;;;;;34.82;37.93;98686.47;4980466;28;20522;-58
2022/05/18 09:01:00;;;;;;;;;;;;;;;33.64;39.37;98691.66;4980359;28;20620;-56
2022/05/18 09:03:40;;;;;;;8.13;4.07;;;;;;;33.52;40.35;98692.19;4980905;28;19913;-57
2022/05/18 09:06:43;;;;;;;7.75;4.10;;;;;;;33.43;40.31;98687.94;4979919;28;20766;-57
2022/05/18 09:12:01;;;;;;;7.05;4.03;;;;;;;32.58;39.45;98697.53;4979656;28;20104;-58
2022/05/18 09:14:30;;;;;;;5.30;3.78;;;;;;;31.93;41.03;98693.63;4980447;28;20714;-56
2022/05/18 09:17:07;;;;;;;7.22;3.83;;;;;;;34.50;37.61;98688.78;4979493;28;20042;-56
2022/05/18 09:19:49;;;;;;;6.45;3.92;;;;;;;35.70;35.30;98700.06;4979738;28;20654;-56
2022/05/18 09:22:24;;;;;;;5.15;3.70;;;;;;;34.06;38.50;98685.38;4978200;28;20097;-58
2022/05/18 09:25:17;;;;;;;5.72;3.88;;;;;;;31.57;41.23;98695.13;4980115;28;20026;-57
2022/05/18 09:28:10;;;;;;;5.43;3.28;;;;;;;33.14;37.97;98692.44;4980069;28;20057;-57
2022/05/18 09:31:01;;;;;;;7.13;3.42;;;;;;;34.96;34.93;98688.19;4979093;28;20058;-58
2022/05/18 09:33:35;;;;;;;5.80;3.90;;;;;;;33.27;37.50;98691.75;4979877;28;20026;-57
2022/05/18 09:36:00;;;;;;;6.18;3.70;;;;;;;32.44;37.45;98691.94;4979209;28;20054;-57
2022/05/18 09:38:54;;;;;;;5.77;3.70;;;;;;;31.06;39.82;98689.38;4979309;28;20416;-57
2022/05/18 09:41:22;;;;;;;5.55;3.42;;;;;;;33.32;37.25;98678.47;4978952;28;20042;-56
2022/05/18 09:43:58;;;;;;;7.07;3.42;;;;;;;34.15;35.16;98686.03;4979682;28;20030;-58
2022/05/18 09:46:28;;;;;;;4.80;3.55;;;;;;;32.20;36.87;98681.41;4979040;28;20106;-58
2022/05/18 09:48:59;;;;;;;8.77;3.50;;;;;;;34.64;35.35;98676.16;4979204;28;20122;-58
2022/05/18 09:51:26;;;;;;;5.80;3.70;;;;;;;32.91;36.48;98680.91;4978745;28;20093;-57
2022/05/18 09:53:51;;;;;;;7.30;3.55;;;;;;;32.97;36.90;98685.56;4979060;28;20022;-59
2022/05/18 09:56:26;;;;;;;5.25;3.45;;;;;;;31.74;38.12;98684.19;4978941;28;20034;-56
2022/05/18 09:58:55;;;;;;;5.53;3.63;;;;;;;32.76;35.75;98672.84;4978911;28;20041;-55
2022/05/18 10:09:50;;;;;;;5.40;3.20;;;;;;;32.05;34.19;98670.59;4979193;28;20159;-57
2022/05/18 10:12:21;;;;;;;5.68;3.05;;;;;;;32.19;35.35;98668.94;4978594;28;20034;-57
2022/05/18 10:14:48;;;;;;;;;;;;;;;33.67;34.11;98665.09;4979249;28;20042;-57
2022/05/18 10:17:18;;;;;;;5.80;3.05;;;;;;;34.48;33.18;98666.47;4978315;28;19922;-58
2022/05/18 10:19:44;;;;;;;9.57;3.03;;;;;;;34.98;32.87;98664.44;4978702;28;20589;-58
2022/05/18 10:22:13;;;;;;;6.72;3.13;;;;;;;33.27;35.07;98653.03;4977717;28;20043;-57
2022/05/18 10:24:44;;;;;;;5.57;3.08;;;;;;;34.16;34.43;98652.53;4979310;28;20022;-57
2022/05/18 10:27:12;;;;;;;6.60;2.92;;;;;;;32.30;35.91;98652.28;4978103;28;20172;-57
2022/05/18 10:29:37;;;;;;;5.75;2.80;;;;;;;34.16;33.29;98657.94;4978681;28;20061;-56
2022/05/18 10:32:09;;;;;;;5.38;2.80;;;;;;;30.84;36.75;98655.97;4978335;28;20511;-56
2022/05/18 10:34:47;;;;;;;6.75;3.10;;;;;;;33.20;33.81;98653.81;4978742;28;20123;-55
2022/05/18 10:37:23;;;;;;;6.15;2.90;;;;;;;33.50;33.64;98658.25;4978034;28;20073;-55
2022/05/18 10:39:48;;;;;;;3.92;2.85;;;;;;;31.90;36.79;98651.66;4979001;28;20103;-57
2022/05/18 10:43:10;;;;;;;4.22;2.60;;;;;;;32.99;34.53;98648.38;4978556;28;20483;-56
2022/05/18 10:45:36;;;;;;;6.25;3.00;;;;;;;34.31;32.20;98644.31;4963513;28;21043;-56
2022/05/18 10:48:15;;;;;;;7.57;3.08;;;;;;;33.69;32.92;98637.84;4965657;28;20033;-59
2022/05/18 10:50:42;;;;;;;6.55;2.92;;;;;;;33.02;33.38;98645.28;4972992;28;20231;-57
2022/05/18 10:53:15;;;;;;;7.78;2.85;;;;;;;33.99;32.66;98639.31;4978661;28;20030;-57
2022/05/18 10:56:08;;;;;;;7.65;2.95;;;;;;;31.69;34.79;98639.75;4977635;28;20047;-56
2022/05/18 10:58:43;;;;;;;7.15;3.15;;;;;;;32.65;33.09;98633.66;4978539;28;20050;-58
2022/05/18 11:01:22;;;;;;;5.28;2.53;;;;;;;33.94;32.21;98633.66;4978130;28;20046;-56
2022/05/18 11:03:50;;;;;;;11.57;3.00;;;;;;;32.60;33.08;98630.69;4978300;28;20308;-58
2022/05/18 11:06:24;;;;;;;9.80;3.20;;;;;;;34.20;31.68;98631.34;4977759;28;20477;-57
2022/05/18 11:08:50;;;;;;;6.20;2.80;;;;;;;33.92;32.09;98627.59;4978452;28;20073;-56
2022/05/18 11:11:31;;;;;;;8.65;3.35;;;;;;;32.07;34.02;98631.63;4978169;28;20026;-56
2022/05/18 11:14:15;;;;;;;6.20;2.60;;;;;;;31.12;34.59;98626.72;4978383;28;20041;-55
2022/05/18 11:16:46;;;;;;;6.40;2.83;;;;;;;31.33;34.48;98618.78;4979972;28;20483;-57
2022/05/18 11:19:24;;;;;;;8.70;3.10;;;;;;;32.03;33.81;98616.00;4982101;28;20033;-57
2022/05/18 11:21:55;;;;;;;6.95;2.90;;;;;;;32.19;35.50;98607.72;4981530;28;20039;-56
2022/05/18 11:25:00;;;;;;;8.43;3.03;;;;;;;31.85;35.78;98605.53;4982012;28;20030;-56
2022/05/18 11:27:43;;;;;;;7.95;3.20;;;;;;;32.10;36.44;98613.41;4969992;28;20049;-56
2022/05/18 11:30:15;;;;;;;6.97;2.90;;;;;;;32.11;35.48;98615.91;4981406;28;20049;-56
2022/05/18 11:32:50;;;;;;;7.50;3.28;;;;;;;30.63;36.92;98608.97;4982285;28;20035;-56
2022/05/18 11:35:40;;;;;;;10.80;3.15;;;;;;;31.44;35.59;98604.03;4981274;28;20752;-58
2022/05/18 11:38:33;;;;;;;7.93;3.08;;;;;;;30.82;35.14;98598.75;4982639;28;20041;-56
2022/05/18 11:41:27;;;;;;;7.32;2.85;;;;;;;28.87;38.42;98603.31;4981402;28;20137;-56
2022/05/18 11:44:09;;;;;;;9.70;3.20;;;;;;;30.51;36.49;98600.47;4982295;28;20054;-58
2022/05/18 11:46:56;;;;;;;10.48;3.13;;;;;;;30.11;36.03;98591.50;4996108;28;20039;-56
2022/05/18 11:49:40;;;;;;;12.27;3.63;;;;;;;30.27;36.12;98589.75;4981388;28;20028;-56
2022/05/18 11:52:39;;;;;;;9.68;3.20;;;;;;;30.50;35.68;98596.06;4981262;28;20042;-58
2022/05/18 11:55:12;;;;;;;8.25;3.00;;;;;;;30.60;35.65;98582.38;4982123;28;20030;-56